METAR AND TAF INFORMATION
METAR FOR LFKC
ADDS - METARS form results

(0936 UTC 14 October 2019)
Data provider http://aviationweather.gov/metar/data/
 
METAR text: LFKC 140930Z AUTO 36006KT 320V020 CAVOK 25/16 Q1019 NOSIG
Conditions at: LFKC (CALVI/ST. CATHER, FR) observed 0930 UTC 14 October 2019
Temperature: 25.0°C (77°F)
Dewpoint: 16.0°C (61°F) [RH = 57%]
Pressure (altimeter): 30.09 inches Hg (1019.0 mb)
Winds: from the N (360 degrees) at 7 MPH (6 knots; 3.1 m/s)
Visibility: 6 or more miles (10+ km)
Ceiling: ceiling and visibility are OK
Clouds: unknown
Weather: no significant weather observed at this time

METAR text: LFKC 140900Z AUTO 35003KT 310V040 CAVOK 26/14 Q1019 NOSIG
Conditions at: LFKC (CALVI/ST. CATHER, FR) observed 0900 UTC 14 October 2019
Temperature: 26.0°C (79°F)
Dewpoint: 14.0°C (57°F) [RH = 48%]
Pressure (altimeter): 30.09 inches Hg (1019.0 mb)
Winds: from the N (350 degrees) at 3 MPH (3 knots; 1.5 m/s)
Visibility: 6 or more miles (10+ km)
Ceiling: ceiling and visibility are OK
Clouds: unknown
Weather: no significant weather observed at this time

Forecast for: LFKC (CALVI/ST. CATHER, FR)
Text: TAF LFKC 140800Z 1409/1509 34006KT CAVOK TX27/1412Z TN15/1503Z
Forecast period: 0900 to 1700 UTC 14 October 2019
Forecast type: FROM: standard forecast or significant change
Winds: from the NNW (340 degrees) at 7 MPH (6 knots; 3.1 m/s)
Visibility: 6 or more miles 10+ km)
Ceiling: unknown
Clouds: missing
Weather: no significant weather forecast for this period
Text: BECMG 1417/1420 18004KT
Forecast period: 1700 UTC 14 October 2019 to 0900 UTC 15 October 2019
Forecast type: BECOMING: Conditions expected to become as follows by 2000 UTC 14 October 2019
Winds: from the S (180 degrees) at 5 MPH (4 knots; 2.1 m/s)
Visibility: 6 or more miles 10+ km)
Ceiling: unknown
Clouds: missing
Weather: no significant weather forecast for this period

 AIRPORT MAP

 RUNWAY INFORMATION
Runway 18 Runway length 7579 ft Runway width 131 ft
Runway elevation 63 ft Runway displaced threshold 0 ft Runway heading 179
Runway 36 Runway length 7579 ft Runway width 131 ft
Runway elevation 198 ft Runway displaced threshold 656 ft Runway heading 359

 AIRPORT FREQUENCIES
Type ATIS Name CALVI ATIS Frequency 131.175 MHZ
Type GND Name CALVI GND Frequency 121.7 MHZ
Type TWR Name CALVI TWR Frequency 120.8 MHZ

 AIRPORT NEAR NAVIGATION AIDS
Type NDB Name Calvi Frequency 375 KHZ



Powered by Virtual Airlines Manager [v2.6.2]